Time;durP1;ratioP1;P1;durP2;ratioP2;P2;SDS_P1;SDS_P2;PMS_P1;PMS_P2;Temp;Humidity;BMP_temperature;BMP_pressure;BME280_temperature;BME280_humidity;BME280_pressure;Samples;Min_cycle;Max_cycle;Signal;HPM_P1;HPM_P2
2023/08/25 00:02:16;;;;;;;18.48;12.98;;;;;;;19.25;100.00;100783.06;5075725;28;20056;-54
2023/08/25 00:04:47;;;;;;;15.98;13.40;;;;;;;19.29;100.00;100778.22;5075518;28;20408;-56
2023/08/25 00:07:15;;;;;;;14.95;12.43;;;;;;;19.31;100.00;100789.59;5075291;28;20049;-54
2023/08/25 00:09:44;;;;;;;15.60;12.30;;;;;;;19.28;100.00;100787.25;5075580;28;20501;-52
2023/08/25 00:12:14;;;;;;;16.88;13.00;;;;;;;19.32;100.00;100788.59;5075462;28;20502;-55
2023/08/25 00:14:42;;;;;;;16.73;13.10;;;;;;;19.31;100.00;100778.91;5075111;28;20059;-53
2023/08/25 00:17:10;;;;;;;15.45;12.05;;;;;;;19.30;100.00;100777.22;5075340;28;20055;-56
2023/08/25 00:19:38;;;;;;;13.52;12.07;;;;;;;19.31;100.00;100778.09;5075306;28;20394;-54
2023/08/25 00:22:07;;;;;;;14.05;12.30;;;;;;;19.32;100.00;100779.75;5075306;28;20471;-55
2023/08/25 00:24:35;;;;;;;15.38;13.02;;;;;;;19.33;100.00;100782.25;5075020;28;20044;-54
2023/08/25 00:27:04;;;;;;;14.35;12.50;;;;;;;19.31;100.00;100778.91;5074470;28;20049;-53
2023/08/25 00:29:36;;;;;;;15.73;12.90;;;;;;;19.28;100.00;100787.25;5074984;28;20410;-56
2023/08/25 00:32:05;;;;;;;16.73;14.65;;;;;;;19.19;100.00;100788.19;5075388;28;20067;-56
2023/08/25 00:34:33;;;;;;;18.35;16.10;;;;;;;19.03;100.00;100787.09;5074944;28;20071;-65
2023/08/25 00:37:01;;;;;;;16.33;14.50;;;;;;;19.03;100.00;100795.09;5074588;28;20044;-66
2023/08/25 00:39:32;;;;;;;17.13;13.73;;;;;;;18.99;100.00;100791.06;5074597;28;20053;-65
2023/08/25 00:42:00;;;;;;;16.33;14.05;;;;;;;19.03;100.00;100789.75;5074821;28;20048;-66
2023/08/25 00:44:28;;;;;;;15.98;13.73;;;;;;;19.04;100.00;100794.06;5073852;28;20545;-66
2023/08/25 00:46:58;;;;;;;14.25;12.75;;;;;;;19.03;100.00;100797.75;5069893;28;20045;-66
2023/08/25 00:49:27;;;;;;;16.00;13.85;;;;;;;18.98;100.00;100797.38;5071438;28;20052;-65
2023/08/25 00:51:56;;;;;;;15.25;13.68;;;;;;;18.99;100.00;100798.22;5070312;28;20048;-66
2023/08/25 00:54:27;;;;;;;16.60;14.95;;;;;;;18.96;100.00;100791.34;5071355;28;20059;-66
2023/08/25 00:56:56;;;;;;;16.55;13.98;;;;;;;19.01;100.00;100789.06;5071192;28;20392;-66
2023/08/25 00:59:24;;;;;;;16.75;14.95;;;;;;;18.95;100.00;100786.19;5071104;28;20491;-65
2023/08/25 01:01:52;;;;;;;15.70;14.13;;;;;;;18.94;100.00;100789.84;5071293;28;20044;-65
2023/08/25 01:04:22;;;;;;;16.70;14.43;;;;;;;19.00;100.00;100786.56;5073178;28;20503;-66
2023/08/25 01:06:54;;;;;;;18.30;16.40;;;;;;;18.91;100.00;100788.34;5074429;28;20398;-66
2023/08/25 01:09:22;;;;;;;18.73;16.80;;;;;;;18.86;100.00;100790.59;5071211;28;20156;-64
2023/08/25 01:12:04;;;;;;;18.52;16.60;;;;;;;18.81;100.00;100787.56;5071030;28;20040;-65
2023/08/25 01:14:42;;;;;;;17.35;15.50;;;;;;;18.85;100.00;100795.06;5071034;28;20075;-65
2023/08/25 01:17:18;;;;;;;17.63;14.77;;;;;;;18.82;100.00;100783.91;5070445;28;20105;-67
2023/08/25 01:19:56;;;;;;;16.08;14.48;;;;;;;18.77;100.00;100786.19;5070640;28;20406;-66
2023/08/25 01:22:44;;;;;;;16.80;15.18;;;;;;;18.83;100.00;100785.56;5069459;28;20127;-66
2023/08/25 01:25:25;;;;;;;16.92;14.93;;;;;;;18.82;100.00;100784.75;5070923;28;20067;-66
2023/08/25 01:27:55;;;;;;;16.80;15.15;;;;;;;18.80;100.00;100778.75;5071077;28;20049;-66
2023/08/25 01:30:24;;;;;;;16.90;15.15;;;;;;;18.78;100.00;100785.22;5070824;28;20051;-66
2023/08/25 01:32:52;;;;;;;18.08;16.13;;;;;;;18.77;100.00;100791.53;5069479;28;20063;-66
2023/08/25 01:35:28;;;;;;;16.80;15.10;;;;;;;18.70;100.00;100785.97;5070451;28;20423;-66
2023/08/25 01:38:02;;;;;;;17.67;15.77;;;;;;;18.62;100.00;100788.59;5069322;28;20049;-65
2023/08/25 01:40:41;;;;;;;19.13;17.23;;;;;;;18.67;100.00;100781.78;5070790;28;20487;-66
2023/08/25 01:43:12;;;;;;;19.75;17.83;;;;;;;18.67;100.00;100773.81;5072520;28;20037;-67
2023/08/25 01:45:41;;;;;;;21.02;18.85;;;;;;;18.64;100.00;100773.28;5070164;28;20059;-66
2023/08/25 01:48:11;;;;;;;21.35;19.10;;;;;;;18.65;100.00;100772.28;5069972;28;20534;-66
2023/08/25 01:50:40;;;;;;;21.48;19.27;;;;;;;18.68;100.00;100763.97;5070083;28;20122;-66
2023/08/25 01:53:09;;;;;;;21.25;19.08;;;;;;;18.66;100.00;100768.63;5069277;28;20051;-66
2023/08/25 01:55:41;;;;;;;21.67;19.38;;;;;;;18.62;100.00;100768.09;5070557;28;20052;-66
2023/08/25 01:58:10;;;;;;;22.67;20.15;;;;;;;18.59;100.00;100765.75;5071132;28;20047;-66
2023/08/25 02:00:38;;;;;;;22.80;20.55;;;;;;;18.58;100.00;100766.75;5069313;28;20487;-65
2023/08/25 02:03:06;;;;;;;24.25;21.90;;;;;;;18.60;100.00;100756.78;5070256;28;20048;-54
2023/08/25 02:05:34;;;;;;;23.60;21.15;;;;;;;18.67;100.00;100757.00;5070457;28;20048;-54
2023/08/25 02:08:02;;;;;;;23.00;20.60;;;;;;;18.75;100.00;100757.06;5072611;28;20479;-54
2023/08/25 02:10:31;;;;;;;21.58;19.55;;;;;;;18.75;100.00;100757.06;5072737;28;20052;-55
2023/08/25 02:13:00;;;;;;;23.38;21.08;;;;;;;18.81;100.00;100763.59;5072872;28;20045;-55
2023/08/25 02:15:28;;;;;;;25.55;22.65;;;;;;;18.75;100.00;100757.88;5072841;28;20044;-55
2023/08/25 02:17:57;;;;;;;25.48;22.90;;;;;;;18.73;100.00;100762.56;5072941;28;20040;-55
2023/08/25 02:20:25;;;;;;;24.52;21.92;;;;;;;18.74;100.00;100758.88;5072947;28;20068;-56
2023/08/25 02:22:53;;;;;;;28.20;25.20;;;;;;;18.78;100.00;100762.06;5073329;28;20140;-55
2023/08/25 02:25:21;;;;;;;25.85;23.10;;;;;;;18.79;100.00;100758.41;5073233;28;20498;-54
2023/08/25 02:27:49;;;;;;;27.73;24.95;;;;;;;18.80;100.00;100754.78;5072240;28;20056;-54
2023/08/25 02:30:19;;;;;;;25.73;23.05;;;;;;;18.81;100.00;100752.94;5072522;28;20079;-54
2023/08/25 02:32:47;;;;;;;27.08;24.33;;;;;;;18.84;100.00;100750.81;5072446;28;20044;-54
2023/08/25 02:35:16;;;;;;;31.35;28.13;;;;;;;18.82;100.00;100741.28;5072556;28;20196;-54
2023/08/25 02:37:58;;;;;;;30.23;27.13;;;;;;;18.81;100.00;100736.94;5072472;28;20052;-54
2023/08/25 02:40:27;;;;;;;30.87;27.90;;;;;;;18.81;100.00;100735.09;5051355;28;20063;-56
2023/08/25 02:42:56;;;;;;;30.75;27.58;;;;;;;18.85;100.00;100733.81;5052673;28;20462;-54
2023/08/25 02:45:26;;;;;;;31.77;28.40;;;;;;;18.86;100.00;100727.50;5052247;28;20055;-53
2023/08/25 02:47:55;;;;;;;29.92;27.02;;;;;;;18.91;100.00;100724.41;5052310;28;20048;-54
2023/08/25 02:50:25;;;;;;;30.65;27.40;;;;;;;18.95;100.00;100720.44;5069830;28;20040;-56
2023/08/25 02:52:53;;;;;;;30.35;26.42;;;;;;;18.92;100.00;100718.91;5072316;28;20094;-54
2023/08/25 02:55:23;;;;;;;29.55;26.67;;;;;;;18.97;100.00;100720.28;5072060;28;20048;-55
2023/08/25 02:57:51;;;;;;;29.77;26.65;;;;;;;18.97;100.00;100713.09;5072366;28;20067;-53
2023/08/25 03:00:23;;;;;;;30.98;27.75;;;;;;;19.00;100.00;100711.94;5071849;28;20133;-53
2023/08/25 03:02:53;;;;;;;31.60;28.23;;;;;;;19.00;100.00;100712.78;5072269;28;20541;-56
2023/08/25 03:05:22;;;;;;;29.77;26.30;;;;;;;19.03;100.00;100707.16;5072028;28;20048;-54
2023/08/25 03:07:52;;;;;;;28.38;25.50;;;;;;;19.05;100.00;100701.66;5072130;28;20049;-54
2023/08/25 03:10:21;;;;;;;32.33;27.17;;;;;;;19.10;100.00;100699.31;5071599;28;20036;-54
2023/08/25 03:12:49;;;;;;;28.70;25.73;;;;;;;19.20;100.00;100696.56;5072141;28;20040;-53
2023/08/25 03:15:18;;;;;;;28.13;25.23;;;;;;;19.17;100.00;100694.19;5071740;28;20052;-55
2023/08/25 03:17:46;;;;;;;29.38;26.30;;;;;;;19.19;100.00;100690.38;5071995;28;20036;-53
2023/08/25 03:20:15;;;;;;;29.33;26.33;;;;;;;19.24;100.00;100693.41;5071606;28;20479;-53
2023/08/25 03:22:44;;;;;;;28.00;25.10;;;;;;;19.22;100.00;100684.75;5071898;28;20491;-55
2023/08/25 03:25:12;;;;;;;28.90;26.00;;;;;;;19.28;100.00;100683.28;5072006;28;20142;-54
2023/08/25 03:27:40;;;;;;;28.75;25.90;;;;;;;19.25;100.00;100675.56;5071479;28;20056;-55
2023/08/25 03:30:09;;;;;;;29.52;26.52;;;;;;;19.25;100.00;100672.91;5071798;28;20364;-54
2023/08/25 03:32:37;;;;;;;29.55;26.33;;;;;;;19.24;100.00;100677.41;5071229;28;20518;-55
2023/08/25 03:35:06;;;;;;;30.17;26.17;;;;;;;19.25;100.00;100676.41;5071763;28;20052;-54
2023/08/25 03:37:36;;;;;;;29.08;25.90;;;;;;;19.29;100.00;100674.25;5070246;28;20127;-56
2023/08/25 03:40:04;;;;;;;29.00;26.13;;;;;;;19.28;100.00;100675.28;5071535;28;20040;-55
2023/08/25 03:42:33;;;;;;;30.77;27.38;;;;;;;19.34;100.00;100671.94;5051703;28;20052;-55
2023/08/25 03:45:01;;;;;;;29.63;26.50;;;;;;;19.34;100.00;100663.94;5051868;28;20534;-55
2023/08/25 03:47:29;;;;;;;30.50;27.23;;;;;;;19.38;100.00;100656.47;5051437;28;20049;-55
2023/08/25 03:49:57;;;;;;;28.73;25.77;;;;;;;19.36;100.00;100671.78;5051645;28;20052;-54
2023/08/25 03:52:25;;;;;;;33.70;27.20;;;;;;;19.32;100.00;100662.44;5068209;28;20048;-54
2023/08/25 03:54:55;;;;;;;30.15;26.98;;;;;;;19.33;100.00;100653.44;5071518;28;20084;-55
2023/08/25 03:57:23;;;;;;;29.98;26.80;;;;;;;19.31;100.00;100661.63;5071552;28;20054;-57
2023/08/25 03:59:51;;;;;;;32.85;29.42;;;;;;;19.32;100.00;100649.97;5071694;28;20048;-55
2023/08/25 04:02:22;;;;;;;30.73;27.55;;;;;;;19.30;100.00;100649.28;5071655;28;20045;-55
2023/08/25 04:04:50;;;;;;;30.50;27.05;;;;;;;19.34;100.00;100649.78;5071572;28;20048;-54
2023/08/25 04:07:18;;;;;;;29.45;26.45;;;;;;;19.36;100.00;100653.97;5071096;28;20102;-55
2023/08/25 04:09:46;;;;;;;31.75;28.45;;;;;;;19.38;100.00;100656.47;5069639;28;20495;-54
2023/08/25 04:12:18;;;;;;;31.40;28.20;;;;;;;19.39;100.00;100642.16;5070934;28;20044;-56
2023/08/25 04:14:46;;;;;;;31.45;28.20;;;;;;;19.40;100.00;100649.13;5070037;28;20044;-55
2023/08/25 04:17:14;;;;;;;30.45;27.25;;;;;;;19.43;100.00;100646.16;5071446;28;20059;-56
2023/08/25 04:19:42;;;;;;;30.55;27.33;;;;;;;19.40;100.00;100644.66;5071318;28;20049;-54
2023/08/25 04:22:10;;;;;;;32.05;28.85;;;;;;;19.39;100.00;100639.47;5071110;28;20387;-54
2023/08/25 04:24:39;;;;;;;30.70;27.42;;;;;;;19.37;100.00;100642.31;5071527;28;20048;-53
2023/08/25 04:27:07;;;;;;;30.58;27.42;;;;;;;19.38;100.00;100645.81;5071063;28;20067;-55
2023/08/25 04:29:37;;;;;;;32.20;27.60;;;;;;;19.39;100.00;100642.97;5070887;28;20052;-55
2023/08/25 04:32:05;;;;;;;30.40;27.33;;;;;;;19.40;100.00;100638.47;5071140;28;20047;-52
2023/08/25 04:34:33;;;;;;;31.38;27.95;;;;;;;19.42;100.00;100639.97;5086788;28;20060;-56
2023/08/25 04:37:02;;;;;;;30.20;27.08;;;;;;;19.42;100.00;100642.63;5071033;28;20510;-56
2023/08/25 04:39:31;;;;;;;29.40;26.30;;;;;;;19.46;100.00;100637.81;5070181;28;20120;-55
2023/08/25 04:41:59;;;;;;;28.70;25.60;;;;;;;19.50;100.00;100633.00;5071121;28;20059;-54
2023/08/25 04:44:27;;;;;;;30.17;26.80;;;;;;;19.48;100.00;100635.81;5070949;28;20579;-55
2023/08/25 04:46:56;;;;;;;32.22;28.70;;;;;;;19.51;100.00;100640.00;5074606;28;20495;-56
2023/08/25 04:49:24;;;;;;;31.58;27.65;;;;;;;19.53;100.00;100624.66;5074823;28;20416;-55
2023/08/25 04:51:52;;;;;;;31.58;28.20;;;;;;;19.53;100.00;100625.50;5075063;28;20044;-53
2023/08/25 04:54:21;;;;;;;31.27;27.98;;;;;;;19.56;100.00;100624.34;5074591;28;20074;-55
2023/08/25 04:56:49;;;;;;;31.50;28.23;;;;;;;19.53;100.00;100624.66;5074225;28;20056;-56
2023/08/25 04:59:17;;;;;;;32.03;28.55;;;;;;;19.53;100.00;100625.50;5074224;28;20114;-53
2023/08/25 05:01:45;;;;;;;33.50;29.85;;;;;;;19.58;100.00;100625.03;5073888;28;20056;-55
2023/08/25 05:04:15;;;;;;;30.75;27.58;;;;;;;19.54;100.00;100626.34;5074543;28;20052;-54
2023/08/25 05:06:43;;;;;;;36.17;30.02;;;;;;;19.50;100.00;100627.69;5074338;28;20049;-54
2023/08/25 05:09:11;;;;;;;33.20;29.75;;;;;;;19.52;100.00;100623.00;5074258;28;20095;-55
2023/08/25 05:11:39;;;;;;;33.88;30.20;;;;;;;19.50;100.00;100628.50;5074090;28;20097;-55
2023/08/25 05:14:07;;;;;;;30.42;27.25;;;;;;;19.49;100.00;100636.66;5089497;28;20051;-53
2023/08/25 05:16:35;;;;;;;34.33;30.80;;;;;;;19.48;100.00;100630.47;5074208;28;20040;-55
2023/08/25 05:19:03;;;;;;;33.78;30.23;;;;;;;19.50;100.00;100630.34;5074186;28;20056;-55
2023/08/25 05:21:33;;;;;;;36.38;32.55;;;;;;;19.55;100.00;100628.00;5073970;28;20049;-56
2023/08/25 05:24:17;;;;;;;34.53;30.92;;;;;;;19.54;100.00;100629.84;5073648;28;20059;-53
2023/08/25 05:26:47;;;;;;;34.65;30.92;;;;;;;19.54;100.00;100624.50;5073043;28;20049;-55
2023/08/25 05:29:15;;;;;;;33.03;29.60;;;;;;;19.54;100.00;100629.84;5073525;28;20107;-55
2023/08/25 05:31:44;;;;;;;33.55;29.55;;;;;;;19.57;100.00;100624.16;5073685;28;20102;-55
2023/08/25 05:34:12;;;;;;;33.13;29.60;;;;;;;19.55;100.00;100625.31;5073633;28;20055;-55
2023/08/25 05:36:41;;;;;;;32.63;29.23;;;;;;;19.58;100.00;100625.03;5073964;28;20049;-56
2023/08/25 05:39:10;;;;;;;34.05;30.45;;;;;;;19.58;100.00;100617.84;5073435;28;20044;-54
2023/08/25 05:41:38;;;;;;;31.90;28.63;;;;;;;19.57;100.00;100620.69;5073547;28;20040;-54
2023/08/25 05:44:06;;;;;;;33.00;29.60;;;;;;;19.59;100.00;100622.19;5073909;28;20253;-55
2023/08/25 05:46:34;;;;;;;32.67;29.30;;;;;;;19.56;100.00;100614.50;5073635;28;20053;-55
2023/08/25 05:49:02;;;;;;;32.42;29.13;;;;;;;19.56;100.00;100611.00;5073541;28;20123;-54
2023/08/25 05:51:33;;;;;;;32.85;29.30;;;;;;;19.62;100.00;100598.84;5073128;28;20040;-55
2023/08/25 05:54:02;;;;;;;31.30;27.65;;;;;;;19.63;100.00;100605.84;5073651;28;20053;-54
2023/08/25 05:56:30;;;;;;;32.92;29.65;;;;;;;19.65;100.00;100614.53;5072858;28;20052;-54
2023/08/25 05:59:00;;;;;;;30.77;27.58;;;;;;;19.68;100.00;100604.34;5073556;28;20048;-55
2023/08/25 06:01:29;;;;;;;32.85;28.40;;;;;;;19.69;100.00;100603.34;5072895;28;20411;-55
2023/08/25 06:04:00;;;;;;;33.00;29.58;;;;;;;19.73;100.00;100607.34;5071392;28;20055;-54
2023/08/25 06:06:30;;;;;;;33.28;29.70;;;;;;;19.76;100.00;100599.00;5072790;28;20078;-55
2023/08/25 06:08:58;;;;;;;34.45;30.25;;;;;;;19.77;100.00;100600.69;5073136;28;20090;-56
2023/08/25 06:11:28;;;;;;;32.38;28.98;;;;;;;19.80;100.00;100606.72;5073053;28;20044;-55
2023/08/25 06:13:57;;;;;;;32.90;28.70;;;;;;;19.79;100.00;100603.19;5072732;28;20048;-54
2023/08/25 06:16:26;;;;;;;32.50;29.20;;;;;;;19.87;100.00;100602.41;5072966;28;20131;-55
2023/08/25 06:18:55;;;;;;;33.35;29.75;;;;;;;19.94;100.00;100598.06;5072836;28;20052;-54
2023/08/25 06:21:23;;;;;;;33.60;29.90;;;;;;;19.95;100.00;100598.88;5071627;28;20040;-53
2023/08/25 06:23:51;;;;;;;32.00;28.70;;;;;;;19.93;100.00;100605.22;5072630;28;20038;-54
2023/08/25 06:26:19;;;;;;;33.05;29.58;;;;;;;19.99;100.00;100609.06;5072772;28;20115;-55
2023/08/25 06:28:49;;;;;;;34.97;28.63;;;;;;;20.00;100.00;100605.41;5072440;28;20056;-54
2023/08/25 06:31:17;;;;;;;31.95;28.38;;;;;;;20.03;100.00;100601.56;5072890;28;20048;-55
2023/08/25 06:33:46;;;;;;;30.05;26.83;;;;;;;20.07;100.00;100611.72;5072192;28;20044;-54
2023/08/25 06:36:14;;;;;;;30.88;27.67;;;;;;;20.07;100.00;100611.72;5072819;28;20044;-53
2023/08/25 06:38:42;;;;;;;30.77;27.48;;;;;;;20.08;100.00;100612.56;5072658;28;20407;-56
2023/08/25 06:41:23;;;;;;;30.60;27.30;;;;;;;20.14;100.00;100616.38;5072380;28;20056;-55
2023/08/25 06:43:53;;;;;;;31.58;28.15;;;;;;;20.13;100.00;100628.09;5072220;28;20053;-56
2023/08/25 06:46:24;;;;;;;32.17;28.73;;;;;;;20.09;100.00;100638.25;5052428;28;20124;-55
2023/08/25 06:48:55;;;;;;;31.88;28.38;;;;;;;20.07;100.00;100630.41;5052179;28;20607;-55
2023/08/25 06:51:24;;;;;;;34.63;30.88;;;;;;;20.05;100.00;100628.91;5052309;28;20045;-55
2023/08/25 06:53:52;;;;;;;34.22;29.13;;;;;;;20.07;100.00;100630.41;5052147;28;20056;-54
2023/08/25 06:56:22;;;;;;;33.08;29.38;;;;;;;20.10;100.00;100619.38;5070009;28;20521;-57
2023/08/25 06:58:54;;;;;;;31.83;28.48;;;;;;;20.10;100.00;100621.25;5071564;28;20053;-56
2023/08/25 07:01:23;;;;;;;34.90;30.42;;;;;;;20.10;100.00;100616.72;5070398;28;20136;-57
2023/08/25 07:03:51;;;;;;;33.17;29.58;;;;;;;20.14;100.00;100619.03;5071556;28;20052;-56
2023/08/25 07:06:19;;;;;;;37.88;31.05;;;;;;;20.10;100.00;100623.91;5071950;28;20147;-57
2023/08/25 07:08:47;;;;;;;35.58;31.08;;;;;;;20.07;100.00;100632.25;5071467;28;20049;-53
2023/08/25 07:11:15;;;;;;;35.28;30.42;;;;;;;20.00;100.00;100621.41;5071763;28;20807;-54
2023/08/25 07:13:43;;;;;;;35.28;31.48;;;;;;;20.02;100.00;100614.06;5071774;28;20357;-57
2023/08/25 07:16:13;;;;;;;35.92;31.70;;;;;;;20.05;100.00;100589.69;5072254;28;20044;-56
2023/08/25 07:18:41;;;;;;;35.10;31.20;;;;;;;20.13;100.00;100590.72;5072276;28;20079;-56
2023/08/25 07:21:09;;;;;;;37.75;33.72;;;;;;;20.13;100.00;100596.03;5071531;28;20047;-55
2023/08/25 07:23:38;;;;;;;39.45;33.80;;;;;;;20.08;100.00;100597.38;5071667;28;20055;-57
2023/08/25 07:26:06;;;;;;;39.63;35.42;;;;;;;20.09;100.00;100580.34;5070374;28;20064;-57
2023/08/25 07:28:36;;;;;;;43.10;36.15;;;;;;;20.08;100.00;100562.69;5071169;28;20063;-56
2023/08/25 07:31:04;;;;;;;38.97;34.88;;;;;;;20.06;100.00;100567.34;5071249;28;20040;-56
2023/08/25 07:33:34;;;;;;;41.63;37.33;;;;;;;20.05;100.00;100571.00;5071712;28;20051;-55
2023/08/25 07:36:04;;;;;;;40.33;36.05;;;;;;;20.05;100.00;100588.88;5071767;28;20048;-56
2023/08/25 07:38:32;;;;;;;39.42;35.13;;;;;;;20.06;100.00;100583.38;5071538;28;20053;-56
2023/08/25 07:41:00;;;;;;;43.50;38.92;;;;;;;20.00;100.00;100586.72;5070669;28;20043;-63
2023/08/25 07:43:29;;;;;;;40.33;35.88;;;;;;;20.05;100.00;100583.53;5067291;28;20054;-63
2023/08/25 07:45:57;;;;;;;39.42;35.30;;;;;;;20.06;100.00;100562.00;5067896;28;20546;-61
2023/08/25 07:48:25;;;;;;;39.08;34.90;;;;;;;20.02;100.00;100557.19;5070104;28;20051;-64
2023/08/25 07:50:55;;;;;;;41.40;36.95;;;;;;;20.10;100.00;100590.03;5071578;28;20048;-61
2023/08/25 07:53:23;;;;;;;39.15;35.05;;;;;;;20.02;100.00;100589.22;5070392;28;20048;-61
2023/08/25 07:55:51;;;;;;;38.17;34.10;;;;;;;20.02;100.00;100571.34;5071077;28;20052;-61
2023/08/25 07:58:21;;;;;;;35.83;32.00;;;;;;;19.99;100.00;100565.50;5071233;28;20490;-61
2023/08/25 08:00:49;;;;;;;35.83;32.13;;;;;;;20.03;100.00;100574.88;5068872;28;20037;-61
2023/08/25 08:03:18;;;;;;;35.58;31.83;;;;;;;20.02;100.00;100579.38;5068289;28;20044;-61
2023/08/25 08:05:47;;;;;;;35.80;31.33;;;;;;;20.02;100.00;100579.38;5068342;28;20044;-61
2023/08/25 08:08:16;;;;;;;34.90;30.70;;;;;;;20.04;100.00;100581.84;5066837;28;20045;-61
2023/08/25 08:10:45;;;;;;;35.08;31.33;;;;;;;20.06;100.00;100580.69;5067748;28;20136;-61
2023/08/25 08:13:13;;;;;;;36.42;30.83;;;;;;;20.01;100.00;100579.53;5068229;28;20056;-61
2023/08/25 08:15:41;;;;;;;38.28;31.55;;;;;;;19.99;100.00;100579.72;5067518;28;20464;-61
2023/08/25 08:18:09;;;;;;;33.25;29.65;;;;;;;20.03;100.00;100570.38;5068141;28;20048;-61
2023/08/25 08:20:37;;;;;;;34.63;30.92;;;;;;;20.04;100.00;100566.69;5075223;28;20503;-61
2023/08/25 08:23:05;;;;;;;37.35;31.42;;;;;;;20.01;100.00;100566.19;5073973;28;20040;-61
2023/08/25 08:25:39;;;;;;;36.63;32.72;;;;;;;19.99;100.00;100577.03;5071785;28;20048;-64
2023/08/25 08:28:08;;;;;;;33.90;30.25;;;;;;;20.00;100.00;100610.75;5071980;28;20059;-65
2023/08/25 08:30:37;;;;;;;38.13;31.10;;;;;;;19.96;100.00;100617.41;5073908;28;20387;-64
2023/08/25 08:33:06;;;;;;;39.33;33.58;;;;;;;19.97;100.00;100643.06;5074825;28;20403;-65
2023/08/25 08:35:34;;;;;;;36.83;31.20;;;;;;;19.97;100.00;100661.75;5073984;28;20048;-65
2023/08/25 08:38:03;;;;;;;35.88;32.10;;;;;;;19.99;100.00;100659.78;5070997;28;20063;-66
2023/08/25 08:40:33;;;;;;;37.15;32.60;;;;;;;20.02;100.00;100654.09;5073176;28;20082;-65
2023/08/25 08:43:07;;;;;;;38.67;33.88;;;;;;;20.01;100.00;100652.41;5074575;28;20068;-65
2023/08/25 08:45:40;;;;;;;38.47;34.42;;;;;;;19.94;100.00;100654.09;5070912;28;20048;-64
2023/08/25 08:48:09;;;;;;;36.95;32.95;;;;;;;19.89;100.00;100649.25;5071577;28;20084;-64
2023/08/25 08:50:40;;;;;;;34.10;30.27;;;;;;;19.86;100.00;100659.41;5070029;28;20095;-64
2023/08/25 08:53:09;;;;;;;35.20;30.48;;;;;;;19.90;100.00;100644.75;5072145;28;20406;-64
2023/08/25 08:55:38;;;;;;;33.15;29.13;;;;;;;19.93;100.00;100634.59;5070785;28;20056;-63
2023/08/25 08:58:08;;;;;;;31.95;28.45;;;;;;;19.84;100.00;100650.75;5071583;28;20052;-63
2023/08/25 09:00:40;;;;;;;31.05;27.75;;;;;;;19.74;100.00;100650.88;5069247;28;20052;-64
2023/08/25 09:03:13;;;;;;;30.88;27.45;;;;;;;19.80;100.00;100636.06;5071361;28;20129;-64
2023/08/25 09:05:42;;;;;;;;;;;;;;;19.77;100.00;100624.69;5071456;28;20139;-63
2023/08/25 09:08:12;;;;;;;28.52;25.52;;;;;;;19.84;100.00;100624.91;5070177;28;20972;-63
2023/08/25 09:10:40;;;;;;;29.20;25.38;;;;;;;19.84;100.00;100611.56;5070515;28;20048;-63
2023/08/25 09:13:10;;;;;;;28.70;24.75;;;;;;;19.86;100.00;100609.53;5071276;28;20059;-63
2023/08/25 09:15:38;;;;;;;27.70;23.73;;;;;;;19.91;100.00;100614.41;5072034;28;20044;-63
2023/08/25 09:18:08;;;;;;;26.95;23.50;;;;;;;19.88;100.00;100620.09;5074078;28;20669;-63
2023/08/25 09:20:38;;;;;;;24.92;20.35;;;;;;;19.86;100.00;100624.72;5070301;28;20044;-62
2023/08/25 09:23:08;;;;;;;25.25;21.40;;;;;;;19.88;100.00;100620.91;5069333;28;20080;-62
2023/08/25 09:25:40;;;;;;;23.33;18.90;;;;;;;19.89;100.00;100616.38;5070160;28;20449;-62
2023/08/25 09:28:10;;;;;;;;;;;;;;;19.82;100.00;100634.06;5071325;28;20139;-63
2023/08/25 09:30:40;;;;;;;22.20;17.70;;;;;;;19.84;100.00;100624.09;5069043;28;19929;-62
2023/08/25 09:33:09;;;;;;;20.55;17.73;;;;;;;19.83;100.00;100625.06;5070122;28;20064;-63
2023/08/25 09:35:38;;;;;;;21.80;17.67;;;;;;;19.87;100.00;100629.91;5069792;28;20059;-62
2023/08/25 09:38:07;;;;;;;20.73;16.42;;;;;;;19.77;100.00;100637.22;5067652;28;20075;-62
2023/08/25 09:40:35;;;;;;;20.13;14.82;;;;;;;19.72;100.00;100637.69;5071409;28;20052;-62
2023/08/25 09:43:04;;;;;;;16.15;13.50;;;;;;;19.74;100.00;100643.72;5071028;28;20137;-62
2023/08/25 09:45:36;;;;;;;16.70;13.35;;;;;;;19.75;100.00;100637.34;5070605;28;20049;-62
2023/08/25 09:48:09;;;;;;;14.95;12.57;;;;;;;19.88;100.00;100636.91;5070694;28;20048;-62
2023/08/25 09:50:39;;;;;;;13.70;11.82;;;;;;;19.86;100.00;100636.22;5072113;28;20582;-62
2023/08/25 09:53:08;;;;;;;15.82;12.25;;;;;;;19.93;100.00;100631.06;5068919;28;20062;-62
2023/08/25 09:55:37;;;;;;;12.15;10.52;;;;;;;19.90;100.00;100640.25;5069407;28;20051;-62
2023/08/25 09:58:06;;;;;;;12.60;10.15;;;;;;;19.98;100.00;100643.94;5070889;28;20047;-62
2023/08/25 10:00:39;;;;;;;12.02;10.07;;;;;;;19.96;100.00;100649.44;5069469;28;20402;-62
2023/08/25 10:03:11;;;;;;;12.18;10.02;;;;;;;19.97;100.00;100645.75;5070233;28;20491;-61
2023/08/25 10:05:41;;;;;;;12.82;10.40;;;;;;;19.90;100.00;100626.88;5072940;28;20411;-62
2023/08/25 10:08:10;;;;;;;12.18;10.00;;;;;;;19.91;100.00;100625.06;5073008;28;20140;-62
2023/08/25 10:10:39;;;;;;;11.18;9.35;;;;;;;19.89;100.00;100606.56;5072845;28;20036;-61
2023/08/25 10:13:11;;;;;;;11.50;9.45;;;;;;;19.82;100.00;100605.53;5071462;28;20044;-62
2023/08/25 10:15:44;;;;;;;10.85;9.60;;;;;;;19.89;100.00;100611.91;5071533;28;20057;-62
2023/08/25 10:18:13;;;;;;;11.57;9.52;;;;;;;19.97;100.00;100615.56;5069495;28;20225;-62
2023/08/25 10:20:43;;;;;;;12.23;10.43;;;;;;;19.97;100.00;100634.25;5069271;28;20499;-62
2023/08/25 10:23:13;;;;;;;16.92;11.82;;;;;;;20.05;100.00;100635.06;5067916;28;20043;-66
2023/08/25 10:25:41;;;;;;;15.73;12.10;;;;;;;20.03;100.00;100618.41;5072722;28;20081;-67
2023/08/25 10:28:10;;;;;;;15.27;11.85;;;;;;;20.17;100.00;100602.72;5071451;28;20060;-66
2023/08/25 10:30:43;;;;;;;15.27;11.95;;;;;;;20.19;100.00;100600.69;5068989;28;20059;-64
2023/08/25 10:33:12;;;;;;;12.35;10.88;;;;;;;20.23;100.00;100605.53;5069014;28;20048;-64
2023/08/25 10:35:42;;;;;;;15.07;11.07;;;;;;;20.58;100.00;100619.47;5068894;28;20041;-65
2023/08/25 10:38:35;;;;;;;14.40;12.90;;;;;;;20.90;100.00;100614.22;5069093;28;20044;-61
2023/08/25 10:41:18;;;;;;;13.13;11.73;;;;;;;21.00;100.00;100617.53;5087877;28;20048;-62
2023/08/25 10:43:50;;;;;;;12.32;10.88;;;;;;;20.97;100.00;100625.91;5069989;28;20044;-62
2023/08/25 10:46:21;;;;;;;12.07;10.35;;;;;;;20.99;100.00;100629.22;5069618;28;20060;-62
2023/08/25 10:49:11;;;;;;;12.18;9.68;;;;;;;21.02;100.00;100639.56;5070751;28;20048;-62
2023/08/25 10:51:39;;;;;;;11.48;9.70;;;;;;;21.46;100.00;100630.19;5069415;28;20048;-62
2023/08/25 10:54:18;;;;;;;11.80;9.88;;;;;;;21.70;100.00;100620.34;5069409;28;20062;-62
2023/08/25 10:56:51;;;;;;;10.35;9.25;;;;;;;21.67;100.00;100616.16;5071585;28;20040;-61
2023/08/25 10:59:22;;;;;;;10.73;8.65;;;;;;;21.71;100.00;100616.66;5069718;28;20053;-61
2023/08/25 11:01:59;;;;;;;8.90;7.93;;;;;;;21.81;100.00;100619.09;5069294;28;20143;-60
2023/08/25 11:04:29;;;;;;;9.38;8.38;;;;;;;21.78;100.00;100620.28;5070834;28;20041;-60
2023/08/25 11:06:59;;;;;;;10.85;8.63;;;;;;;21.73;100.00;100612.78;5072000;28;20072;-60
2023/08/25 11:09:35;;;;;;;10.35;8.77;;;;;;;21.74;100.00;100613.63;5069331;28;20052;-60
2023/08/25 11:12:08;;;;;;;10.38;8.32;;;;;;;21.64;100.00;100627.25;5069468;28;20051;-60
2023/08/25 11:14:37;;;;;;;9.20;8.15;;;;;;;21.74;100.00;100625.13;5069008;28;20387;-61